Time;durP1;ratioP1;P1;durP2;ratioP2;P2;SDS_P1;SDS_P2;PMS_P1;PMS_P2;Temp;Humidity;BMP_temperature;BMP_pressure;BME280_temperature;BME280_humidity;BME280_pressure;Samples;Min_cycle;Max_cycle;Signal;HPM_P1;HPM_P2
2022/07/25 00:00:01;;;;;;;9.55;7.03;;;21.00;1.00;;;;;;5034860;28;20578;-63
2022/07/25 00:02:27;;;;;;;9.05;6.47;;;20.90;1.00;;;;;;5065605;28;20204;-63
2022/07/25 00:04:54;;;;;;;9.32;7.00;;;21.20;1.00;;;;;;5049284;28;20557;-63
2022/07/25 00:07:21;;;;;;;10.95;7.22;;;21.00;1.00;;;;;;5023603;28;20446;-63
2022/07/25 00:09:48;;;;;;;12.00;6.80;;;21.00;1.00;;;;;;5043784;28;20200;-63
2022/07/25 00:12:15;;;;;;;7.82;7.03;;;20.90;1.00;;;;;;5060605;28;20444;-63
2022/07/25 00:14:43;;;;;;;8.43;7.63;;;20.80;1.00;;;;;;5032506;28;20200;-63
2022/07/25 00:17:09;;;;;;;8.85;7.47;;;20.60;1.00;;;;;;5047516;28;20200;-63
2022/07/25 00:19:36;;;;;;;10.73;7.30;;;20.80;1.00;;;;;;5067846;28;20203;-63
2022/07/25 00:22:03;;;;;;;8.07;7.20;;;20.20;1.00;;;;;;5009222;28;20220;-63
2022/07/25 00:24:30;;;;;;;9.55;7.78;;;20.80;1.00;;;;;;5044879;28;20758;-62
2022/07/25 00:26:57;;;;;;;8.98;6.43;;;20.80;1.00;;;;;;5041350;28;20215;-63
2022/07/25 00:29:24;;;;;;;8.75;6.97;;;20.70;1.00;;;;;;5066043;28;20207;-63
2022/07/25 00:31:52;;;;;;;8.30;6.68;;;20.80;1.00;;;;;;5038831;28;20232;-64
2022/07/25 00:34:19;;;;;;;11.32;7.10;;;20.70;1.00;;;;;;5033686;28;20196;-62
2022/07/25 00:36:46;;;;;;;8.18;6.95;;;20.70;1.00;;;;;;5052621;28;20586;-63
2022/07/25 00:39:13;;;;;;;8.48;7.57;;;20.60;1.00;;;;;;5020151;28;21304;-64
2022/07/25 00:41:40;;;;;;;8.68;7.80;;;20.60;1.00;;;;;;5053191;28;20204;-63
2022/07/25 00:44:07;;;;;;;8.77;7.13;;;23.50;1.00;;;;;;5059870;28;20870;-63
2022/07/25 00:46:37;;;;;;;7.50;6.70;;;20.60;1.00;;;;;;5043313;28;20205;-63
2022/07/25 00:49:05;;;;;;;10.43;7.35;;;20.60;1.00;;;;;;5045317;28;21257;-63
2022/07/25 00:51:32;;;;;;;7.95;7.05;;;;;;;;;;5062187;28;20236;-63
2022/07/25 00:53:59;;;;;;;12.70;6.85;;;22.30;1.00;;;;;;5014908;28;20200;-63
2022/07/25 00:56:26;;;;;;;8.93;7.25;;;20.50;1.00;;;;;;5045887;28;20197;-63
2022/07/25 00:58:53;;;;;;;10.35;7.45;;;20.50;1.00;;;;;;5047587;28;20196;-63
2022/07/25 01:01:20;;;;;;;8.82;7.18;;;20.60;1.00;;;;;;5061591;28;20488;-63
2022/07/25 01:03:46;;;;;;;9.35;7.30;;;20.50;1.00;;;;;;5044462;28;20212;-63
2022/07/25 01:06:15;;;;;;;10.77;7.65;;;20.50;1.00;;;;;;5061226;28;20226;-63
2022/07/25 01:08:42;;;;;;;11.10;7.80;;;20.50;1.00;;;;;;5033887;28;20205;-63
2022/07/25 01:11:09;;;;;;;8.48;7.28;;;20.30;1.00;;;;;;5008125;28;21793;-63
2022/07/25 01:13:36;;;;;;;11.38;7.85;;;20.40;1.00;;;;;;5046915;28;20231;-63
2022/07/25 01:16:03;;;;;;;10.10;7.60;;;20.90;1.00;;;;;;5041226;28;20204;-63
2022/07/25 01:18:29;;;;;;;13.00;8.02;;;20.40;1.00;;;;;;5046769;28;20204;-63
2022/07/25 01:20:58;;;;;;;8.35;7.47;;;20.40;1.00;;;;;;5062027;28;20640;-63
2022/07/25 01:23:24;;;;;;;9.68;7.30;;;20.40;1.00;;;;;;5052063;28;20207;-63
2022/07/25 01:25:51;;;;;;;11.38;7.65;;;20.20;1.00;;;;;;5028565;28;20203;-64
2022/07/25 01:28:18;;;;;;;8.88;7.55;;;20.10;1.00;;;;;;5049097;28;20218;-63
2022/07/25 01:30:45;;;;;;;10.15;7.75;;;20.40;1.00;;;;;;5053464;28;20211;-63
2022/07/25 01:33:15;;;;;;;9.52;7.78;;;20.20;1.00;;;;;;5040487;28;20595;-63
2022/07/25 01:35:42;;;;;;;8.68;7.78;;;20.30;1.00;;;;;;5063568;28;20200;-62
2022/07/25 01:38:10;;;;;;;11.40;8.25;;;20.30;1.00;;;;;;5043524;28;20629;-62
2022/07/25 01:40:37;;;;;;;10.18;8.23;;;20.30;1.00;;;;;;5050542;28;20200;-63
2022/07/25 01:43:05;;;;;;;10.20;7.55;;;19.60;1.00;;;;;;5031011;28;20207;-62
2022/07/25 01:45:31;;;;;;;8.45;7.22;;;20.30;1.00;;;;;;5049464;28;20200;-63
2022/07/25 01:47:58;;;;;;;15.57;7.90;;;20.20;1.00;;;;;;5050104;28;20208;-63
2022/07/25 01:50:25;;;;;;;9.05;7.97;;;20.20;1.00;;;;;;5045569;28;21040;-63
2022/07/25 01:52:52;;;;;;;8.75;7.35;;;20.20;1.00;;;;;;5047725;28;20460;-64
2022/07/25 01:55:20;;;;;;;9.70;7.70;;;20.20;1.00;;;;;;5049737;28;20964;-62
2022/07/25 01:57:47;;;;;;;7.57;6.85;;;20.10;1.00;;;;;;5022539;28;20216;-64
2022/07/25 02:00:15;;;;;;;10.25;7.20;;;20.20;1.00;;;;;;5044923;28;22787;-64
2022/07/25 02:02:43;;;;;;;10.85;7.38;;;20.10;1.00;;;;;;5047556;28;20323;-64
2022/07/25 02:05:12;;;;;;;7.75;6.95;;;20.10;1.00;;;;;;5045949;28;20428;-64
2022/07/25 02:07:39;;;;;;;14.10;7.60;;;20.00;1.00;;;;;;5049296;28;20570;-65
2022/07/25 02:10:07;;;;;;;13.65;7.18;;;20.30;1.00;;;;;;5046920;28;20893;-64
2022/07/25 02:12:36;;;;;;;10.15;7.50;;;;;;;;;;5052044;28;20228;-64
2022/07/25 02:15:03;;;;;;;7.72;6.93;;;20.30;1.00;;;;;;5034683;28;20433;-64
2022/07/25 02:17:30;;;;;;;7.78;6.97;;;;;;;;;;5047762;28;20204;-64
2022/07/25 02:19:57;;;;;;;7.78;6.68;;;20.10;1.00;;;;;;5042065;28;20597;-64
2022/07/25 02:22:24;;;;;;;9.20;7.30;;;20.00;1.00;;;;;;5058091;28;20359;-62
2022/07/25 02:24:51;;;;;;;9.07;6.90;;;20.10;1.00;;;;;;5062083;28;20200;-63
2022/07/25 02:27:17;;;;;;;9.68;6.72;;;19.90;1.00;;;;;;5021109;28;20335;-63
2022/07/25 02:29:45;;;;;;;9.25;6.60;;;20.10;1.00;;;;;;5036979;28;20572;-64
2022/07/25 02:32:12;;;;;;;8.52;6.45;;;20.10;1.00;;;;;;5066984;28;20396;-64
2022/07/25 02:34:39;;;;;;;7.03;6.32;;;20.00;1.00;;;;;;5043976;28;20621;-64
2022/07/25 02:37:06;;;;;;;9.00;7.10;;;20.00;1.00;;;;;;5038470;28;20890;-64
2022/07/25 02:39:33;;;;;;;7.93;6.72;;;20.00;1.00;;;;;;5041604;28;20401;-64
2022/07/25 02:42:00;;;;;;;7.28;6.30;;;20.20;1.00;;;;;;5050055;28;20775;-64
2022/07/25 02:44:26;;;;;;;7.07;6.03;;;20.00;1.00;;;;;;5037323;28;21231;-63
2022/07/25 02:46:55;;;;;;;11.30;6.38;;;20.00;1.00;;;;;;5047305;28;20592;-64
2022/07/25 02:49:21;;;;;;;7.88;6.88;;;19.90;1.00;;;;;;5046985;28;20207;-64
2022/07/25 02:51:48;;;;;;;9.85;6.65;;;19.70;1.00;;;;;;5052717;28;20792;-64
2022/07/25 02:54:15;;;;;;;9.15;6.20;;;19.90;1.00;;;;;;5051251;28;20220;-64
2022/07/25 02:56:42;;;;;;;8.98;6.55;;;19.80;1.00;;;;;;5055234;28;21369;-63
2022/07/25 02:59:09;;;;;;;7.25;6.47;;;;;;;;;;5055997;28;20227;-63
2022/07/25 03:01:36;;;;;;;9.25;7.20;;;19.90;1.00;;;;;;5036121;28;20526;-62
2022/07/25 03:04:04;;;;;;;6.80;6.13;;;19.90;1.00;;;;;;5063723;28;20199;-63
2022/07/25 03:06:31;;;;;;;7.07;6.38;;;19.90;1.00;;;;;;5036927;28;20196;-64
2022/07/25 03:08:58;;;;;;;6.82;6.13;;;19.30;1.00;;;;;;5049948;28;20204;-64
2022/07/25 03:11:25;;;;;;;7.40;6.18;;;19.90;1.00;;;;;;5042029;28;20707;-63
2022/07/25 03:13:52;;;;;;;8.80;6.32;;;19.90;1.00;;;;;;5055705;28;20227;-64
2022/07/25 03:16:18;;;;;;;10.52;6.82;;;19.80;1.00;;;;;;5036624;28;20212;-63
2022/07/25 03:18:45;;;;;;;7.53;6.45;;;20.10;1.00;;;;;;5058797;28;20942;-63
2022/07/25 03:21:13;;;;;;;9.10;6.20;;;19.70;1.00;;;;;;5047823;28;20223;-64
2022/07/25 03:23:40;;;;;;;10.57;6.18;;;19.70;1.00;;;;;;5052601;28;20672;-63
2022/07/25 03:26:07;;;;;;;7.35;6.43;;;19.70;1.00;;;;;;5050211;28;20200;-62
2022/07/25 03:28:34;;;;;;;8.20;6.03;;;19.80;1.00;;;;;;5049383;28;20544;-63
2022/07/25 03:31:00;;;;;;;12.50;6.05;;;19.80;1.00;;;;;;5058383;28;20401;-64
2022/07/25 03:33:27;;;;;;;8.32;6.30;;;19.80;1.00;;;;;;5035229;28;20417;-63
2022/07/25 03:35:55;;;;;;;9.35;6.40;;;20.30;1.00;;;;;;5061564;28;20207;-63
2022/07/25 03:38:23;;;;;;;6.25;5.65;;;19.70;1.00;;;;;;5016050;28;20200;-63
2022/07/25 03:40:50;;;;;;;8.95;6.10;;;20.50;1.00;;;;;;5060608;28;20245;-64
2022/07/25 03:43:17;;;;;;;10.93;6.60;;;19.70;1.00;;;;;;5054390;28;20756;-63
2022/07/25 03:45:44;;;;;;;9.52;6.07;;;19.70;1.00;;;;;;5048117;28;20211;-64
2022/07/25 03:48:10;;;;;;;7.00;5.90;;;19.70;1.00;;;;;;5038171;28;20200;-64
2022/07/25 03:50:38;;;;;;;9.73;6.05;;;;;;;;;;5061634;28;21126;-63
2022/07/25 03:53:05;;;;;;;9.73;5.80;;;;;;;;;;5046808;28;20266;-62
2022/07/25 03:55:33;;;;;;;8.80;6.30;;;19.70;1.00;;;;;;5045340;28;20204;-64
2022/07/25 03:58:00;;;;;;;9.23;5.75;;;19.70;1.00;;;;;;5062249;28;20203;-64
2022/07/25 04:00:27;;;;;;;6.72;6.05;;;19.70;1.00;;;;;;5037426;28;20351;-64
2022/07/25 04:02:53;;;;;;;8.15;5.65;;;19.60;1.00;;;;;;5035282;28;20209;-63
2022/07/25 04:05:20;;;;;;;12.98;6.45;;;;;;;;;;5050705;28;20204;-64
2022/07/25 04:07:47;;;;;;;10.35;6.57;;;20.00;1.00;;;;;;5047533;28;20203;-62
2022/07/25 04:10:14;;;;;;;7.22;6.20;;;19.80;1.00;;;;;;5046506;28;20231;-63
2022/07/25 04:12:42;;;;;;;8.52;6.03;;;19.80;1.00;;;;;;5031598;28;20255;-64
2022/07/25 04:15:09;;;;;;;11.60;6.38;;;19.80;1.00;;;;;;5033777;28;20271;-62
2022/07/25 04:17:36;;;;;;;9.32;6.03;;;19.80;1.00;;;;;;5040092;28;20220;-64
2022/07/25 04:20:03;;;;;;;7.00;6.00;;;19.50;1.00;;;;;;5032006;28;20353;-64
2022/07/25 04:22:30;;;;;;;8.82;6.45;;;19.80;1.00;;;;;;5030629;28;20416;-63
2022/07/25 04:24:57;;;;;;;9.52;6.03;;;19.90;1.00;;;;;;5043503;28;20783;-63
2022/07/25 04:27:23;;;;;;;9.85;6.60;;;19.40;1.00;;;;;;5048748;28;20791;-64
2022/07/25 04:29:52;;;;;;;9.30;5.72;;;19.90;1.00;;;;;;5058322;28;20204;-62
2022/07/25 04:32:19;;;;;;;11.30;6.30;;;19.90;1.00;;;;;;5058107;28;20220;-62
2022/07/25 04:34:46;;;;;;;7.05;5.80;;;19.90;1.00;;;;;;5042341;28;20211;-63
2022/07/25 04:37:12;;;;;;;8.40;6.15;;;20.00;1.00;;;;;;5056438;28;20204;-64
2022/07/25 04:39:39;;;;;;;7.90;5.50;;;19.90;1.00;;;;;;5043492;28;20847;-64
2022/07/25 04:42:06;;;;;;;6.10;5.50;;;19.80;1.00;;;;;;5062044;28;20313;-63
2022/07/25 04:44:33;;;;;;;10.60;5.85;;;20.10;1.00;;;;;;5037470;28;20208;-62
2022/07/25 04:47:01;;;;;;;14.50;6.18;;;20.10;1.00;;;;;;5063459;28;20216;-63
2022/07/25 04:49:28;;;;;;;6.97;5.57;;;20.10;1.00;;;;;;5034678;28;22910;-62
2022/07/25 04:51:54;;;;;;;6.20;5.20;;;20.10;1.00;;;;;;5044824;28;20569;-63
2022/07/25 04:54:21;;;;;;;8.45;5.50;;;20.10;1.00;;;;;;5037633;28;20228;-63
2022/07/25 04:56:48;;;;;;;5.82;5.20;;;20.00;1.00;;;;;;5053780;28;20216;-62
2022/07/25 04:59:15;;;;;;;10.93;5.93;;;20.20;99.90;;;;;;5051628;28;20548;-62
2022/07/25 05:01:41;;;;;;;10.27;5.45;;;20.30;99.90;;;;;;5045896;28;20220;-63
2022/07/25 05:04:09;;;;;;;8.43;5.55;;;20.20;99.90;;;;;;5064763;28;20767;-64
2022/07/25 05:06:36;;;;;;;6.43;5.00;;;20.30;99.90;;;;;;5029515;28;20223;-62
2022/07/25 05:09:03;;;;;;;7.25;5.18;;;20.30;99.90;;;;;;5051320;28;20529;-63
2022/07/25 05:11:30;;;;;;;7.78;5.38;;;20.30;99.90;;;;;;5051392;28;20837;-64
2022/07/25 05:13:57;;;;;;;7.47;5.10;;;20.20;99.90;;;;;;5041049;28;20903;-62
2022/07/25 05:16:24;;;;;;;5.28;4.68;;;20.50;99.90;;;;;;5049657;28;20215;-62
2022/07/25 05:18:51;;;;;;;5.15;4.60;;;20.60;73.20;;;;;;5049269;28;20329;-62
2022/07/25 05:21:19;;;;;;;6.93;5.25;;;20.50;63.30;;;;;;5035905;28;20212;-64
2022/07/25 05:23:46;;;;;;;6.05;4.47;;;19.90;3.90;;;;;;5046852;28;20783;-64
2022/07/25 05:26:13;;;;;;;5.75;5.00;;;20.60;1.00;;;;;;5030827;28;20216;-64
2022/07/25 05:28:40;;;;;;;5.35;4.85;;;20.70;1.00;;;;;;5055828;28;20216;-63
2022/07/25 05:31:06;;;;;;;6.82;4.63;;;20.70;1.00;;;;;;5032215;28;20350;-63
2022/07/25 05:33:34;;;;;;;7.15;4.60;;;20.70;1.00;;;;;;5015004;28;20661;-64
2022/07/25 05:36:02;;;;;;;5.47;4.97;;;20.60;1.00;;;;;;5040671;28;20202;-64
2022/07/25 05:38:30;;;;;;;5.03;4.43;;;20.70;1.00;;;;;;5013509;28;20223;-64
2022/07/25 05:40:57;;;;;;;6.45;5.15;;;20.90;1.00;;;;;;5041682;28;20254;-61
2022/07/25 05:43:24;;;;;;;6.05;4.90;;;21.00;99.90;;;;;;5045842;28;20716;-64
2022/07/25 05:45:50;;;;;;;8.13;4.90;;;21.10;99.90;;;;;;5044479;28;20310;-61
2022/07/25 05:48:18;;;;;;;5.05;4.55;;;;;;;;;;5042508;28;20232;-64
2022/07/25 05:50:46;;;;;;;11.07;5.30;;;21.00;1.00;;;;;;5048939;28;20231;-63
2022/07/25 05:53:13;;;;;;;7.57;4.85;;;21.20;1.00;;;;;;5019731;28;20251;-61
2022/07/25 05:55:41;;;;;;;4.63;4.22;;;20.40;99.90;;;;;;5032772;28;20835;-62
2022/07/25 05:58:09;;;;;;;5.63;4.60;;;21.20;99.90;;;;;;5045126;28;20216;-62
2022/07/25 06:00:35;;;;;;;6.90;4.43;;;21.30;99.90;;;;;;5040704;28;20678;-63
2022/07/25 06:03:02;;;;;;;5.93;5.40;;;21.30;99.90;;;;;;5060885;28;20215;-62
2022/07/25 06:05:29;;;;;;;7.03;4.63;;;21.30;1.00;;;;;;5053791;28;20523;-62
2022/07/25 06:07:56;;;;;;;5.35;4.50;;;21.60;1.00;;;;;;5034315;28;20224;-63
2022/07/25 06:10:23;;;;;;;5.13;4.63;;;21.50;1.00;;;;;;5048800;28;20630;-63
2022/07/25 06:12:51;;;;;;;5.65;4.50;;;21.60;1.00;;;;;;5046062;28;20228;-63
2022/07/25 06:15:18;;;;;;;5.95;4.72;;;21.60;99.90;;;;;;5045484;28;20607;-63
2022/07/25 06:17:45;;;;;;;8.35;5.45;;;21.70;99.90;;;;;;5060060;28;20226;-63
2022/07/25 06:20:12;;;;;;;5.05;4.43;;;19.60;1.00;;;;;;5058713;28;20211;-63
2022/07/25 06:22:39;;;;;;;7.15;4.93;;;21.70;99.90;;;;;;5034195;28;20235;-63
2022/07/25 06:25:07;;;;;;;6.43;4.65;;;21.90;1.00;;;;;;5056779;28;20211;-63
2022/07/25 06:27:34;;;;;;;5.32;4.38;;;21.90;1.00;;;;;;5038731;28;20228;-63
2022/07/25 06:30:03;;;;;;;6.63;5.00;;;22.20;1.00;;;;;;5058962;28;20215;-63
2022/07/25 06:32:30;;;;;;;5.35;4.82;;;21.90;1.00;;;;;;5061679;28;20454;-62
2022/07/25 06:34:57;;;;;;;4.90;4.40;;;21.90;1.00;;;;;;5060306;28;20239;-63
2022/07/25 06:37:23;;;;;;;5.65;4.60;;;21.90;1.00;;;;;;5055141;28;20203;-63
2022/07/25 06:39:50;;;;;;;6.07;4.57;;;21.90;1.00;;;;;;5042443;28;20204;-63
2022/07/25 06:42:17;;;;;;;7.57;4.70;;;22.00;1.00;;;;;;5056257;28;20594;-62
2022/07/25 06:44:44;;;;;;;4.60;4.20;;;22.30;1.00;;;;;;5059284;28;20273;-62
2022/07/25 06:47:13;;;;;;;6.60;4.88;;;22.10;1.00;;;;;;5056372;28;20893;-63
2022/07/25 06:49:40;;;;;;;5.80;4.90;;;22.40;1.00;;;;;;5062233;28;20313;-63
2022/07/25 06:52:07;;;;;;;6.68;5.03;;;22.20;1.00;;;;;;5064949;28;20219;-62
2022/07/25 06:54:34;;;;;;;13.43;4.55;;;22.30;1.00;;;;;;5028302;28;20428;-63
2022/07/25 06:57:01;;;;;;;5.82;4.78;;;22.30;1.00;;;;;;5060965;28;20197;-63
2022/07/25 06:59:28;;;;;;;5.68;4.68;;;22.40;99.90;;;;;;5043691;28;20329;-63
2022/07/25 07:01:55;;;;;;;6.22;5.10;;;22.60;99.90;;;;;;5060707;28;20208;-63
2022/07/25 07:04:23;;;;;;;5.65;5.07;;;22.60;99.90;;;;;;5062879;28;20980;-62
2022/07/25 07:06:50;;;;;;;5.78;4.65;;;22.60;89.30;;;;;;5064752;28;20201;-63
2022/07/25 07:09:16;;;;;;;5.15;4.65;;;22.70;99.90;;;;;;5058141;28;20196;-62
2022/07/25 07:11:43;;;;;;;5.57;4.57;;;22.80;99.90;;;;;;5040219;28;20200;-63
2022/07/25 07:14:10;;;;;;;6.63;4.90;;;22.70;99.90;;;;;;5053639;28;20228;-62
2022/07/25 07:16:40;;;;;;;6.97;4.70;;;;;;;;;;5064999;28;20523;-62
2022/07/25 07:19:09;;;;;;;4.72;4.22;;;22.70;50.80;;;;;;5049004;28;20797;-63
2022/07/25 07:21:37;;;;;;;6.93;4.75;;;22.90;31.50;;;;;;5064271;28;20338;-62
2022/07/25 07:24:04;;;;;;;5.18;4.63;;;22.10;99.90;;;;;;5061468;28;20197;-62
2022/07/25 07:26:32;;;;;;;6.38;5.10;;;;;;;;;;5034260;28;20215;-62
2022/07/25 07:28:59;;;;;;;7.22;5.25;;;23.00;99.90;;;;;;5061141;28;20490;-62
2022/07/25 07:31:26;;;;;;;7.38;4.90;;;23.00;1.00;;;;;;5053089;28;20289;-62
2022/07/25 07:33:53;;;;;;;5.32;4.57;;;23.00;1.00;;;;;;5062005;28;20582;-64
2022/07/25 07:36:20;;;;;;;5.97;5.15;;;22.90;1.00;;;;;;5069327;28;20294;-63
2022/07/25 07:38:48;;;;;;;6.15;4.70;;;22.90;1.00;;;;;;5067755;28;20196;-62
2022/07/25 07:41:15;;;;;;;6.03;4.72;;;23.00;1.00;;;;;;5040181;28;20220;-62
2022/07/25 07:43:42;;;;;;;5.70;5.00;;;22.90;1.00;;;;;;5057911;28;20716;-63
2022/07/25 07:46:15;;;;;;;5.13;4.63;;;22.80;1.00;;;;;;5050369;28;20231;-62
2022/07/25 07:48:42;;;;;;;9.35;5.47;;;23.10;1.00;;;;;;5061511;28;21090;-62
2022/07/25 07:51:08;;;;;;;6.60;4.90;;;23.20;99.90;;;;;;5064474;28;20822;-62
2022/07/25 07:56:23;;;;;;;8.70;5.20;;;23.20;99.90;;;;;;5033963;28;20314;-62
2022/07/25 07:58:50;;;;;;;7.50;4.93;;;23.20;99.90;;;;;;5032022;28;20516;-62
2022/07/25 08:01:17;;;;;;;5.85;5.25;;;23.30;99.90;;;;;;5066444;28;20215;-62
2022/07/25 08:03:44;;;;;;;6.10;5.22;;;;;;;;;;5047599;28;20820;-62
2022/07/25 08:06:10;;;;;;;5.50;5.00;;;23.20;48.20;;;;;;5066087;28;20204;-62
2022/07/25 08:08:37;;;;;;;5.07;4.68;;;23.20;63.40;;;;;;5063063;28;20305;-62
2022/07/25 08:11:04;;;;;;;10.32;5.25;;;23.10;99.90;;;;;;5067250;28;20670;-62
2022/07/25 08:13:33;;;;;;;12.65;5.22;;;23.30;99.90;;;;;;5044001;28;20220;-62
2022/07/25 08:16:03;;;;;;;5.45;4.50;;;23.30;99.90;;;;;;5066828;28;20188;-62
2022/07/25 08:18:31;;;;;;;5.65;5.05;;;23.40;1.00;;;;;;5054292;28;20281;-62
2022/07/25 08:20:58;;;;;;;5.13;4.63;;;23.60;99.90;;;;;;5066922;28;20200;-62
2022/07/25 08:23:26;;;;;;;8.07;5.32;;;23.60;1.00;;;;;;5068429;28;20547;-62
2022/07/25 08:25:53;;;;;;;9.32;5.32;;;23.70;99.90;;;;;;5062190;28;20513;-62
2022/07/25 08:28:20;;;;;;;8.32;4.85;;;24.00;99.90;;;;;;5047030;28;20215;-62
2022/07/25 08:30:49;;;;;;;5.70;5.10;;;22.70;99.90;;;;;;5060798;28;20488;-62
2022/07/25 08:33:16;;;;;;;9.05;4.90;;;23.50;1.00;;;;;;5055270;28;20201;-61
2022/07/25 08:35:47;;;;;;;9.43;4.68;;;23.90;1.00;;;;;;5050997;28;20197;-61
2022/07/25 08:38:15;;;;;;;6.22;4.88;;;;;;;;;;5062722;28;21382;-62
2022/07/25 08:40:41;;;;;;;6.28;4.93;;;24.00;1.00;;;;;;5065723;28;20192;-62
2022/07/25 08:43:12;;;;;;;5.53;4.35;;;23.60;1.00;;;;;;5062390;28;20207;-63
2022/07/25 08:45:45;;;;;;;6.30;5.00;;;24.20;1.00;;;;;;5041331;28;20235;-62
2022/07/25 08:48:13;;;;;;;11.20;5.07;;;24.30;1.00;;;;;;5061116;28;24005;-62
2022/07/25 08:50:40;;;;;;;8.27;4.88;;;24.80;1.00;;;;;;5055790;28;20597;-62
2022/07/25 08:53:07;;;;;;;6.57;5.15;;;24.30;1.00;;;;;;5055655;28;20203;-62
2022/07/25 08:55:34;;;;;;;7.90;4.88;;;24.40;1.00;;;;;;5048038;28;20483;-62
2022/07/25 08:58:01;;;;;;;7.70;4.97;;;24.40;99.90;;;;;;5060300;28;20693;-62
2022/07/25 09:00:29;;;;;;;5.30;4.40;;;24.50;99.90;;;;;;5036243;28;20231;-62
2022/07/25 09:02:58;;;;;;;6.80;5.07;;;24.50;99.90;;;;;;5058067;28;20414;-63
2022/07/25 09:05:27;;;;;;;4.68;4.07;;;24.70;99.90;;;;;;5049999;28;20208;-62
2022/07/25 09:07:55;;;;;;;6.97;5.00;;;24.70;99.90;;;;;;5057801;28;20212;-62
2022/07/25 09:10:24;;;;;;;6.63;4.75;;;24.70;99.90;;;;;;5068531;28;20558;-62
2022/07/25 09:12:52;;;;;;;7.75;4.68;;;24.80;99.90;;;;;;5062996;28;20410;-62
2022/07/25 09:15:28;;;;;;;5.50;4.40;;;25.10;1.00;;;;;;5049606;28;20237;-62
2022/07/25 09:17:55;;;;;;;5.45;4.60;;;25.10;99.90;;;;;;5060826;28;20357;-62
2022/07/25 09:20:23;;;;;;;6.30;4.68;;;25.20;99.90;;;;;;5056039;28;20211;-62
2022/07/25 09:22:51;;;;;;;6.28;4.40;;;25.30;99.90;;;;;;5063840;28;20717;-62
2022/07/25 09:25:22;;;;;;;4.90;4.40;;;25.20;1.00;;;;;;5061874;28;20196;-62
2022/07/25 09:27:49;;;;;;;7.43;4.53;;;25.30;1.00;;;;;;5065154;28;20192;-62
2022/07/25 09:30:16;;;;;;;5.32;4.75;;;25.30;1.00;;;;;;5066446;28;20195;-62
2022/07/25 09:32:44;;;;;;;6.47;4.38;;;25.20;1.00;;;;;;5041554;28;20207;-63
2022/07/25 09:35:11;;;;;;;7.10;4.50;;;25.50;1.00;;;;;;5053938;28;20444;-62
2022/07/25 09:37:38;;;;;;;5.15;4.65;;;25.60;1.20;;;;;;5067809;28;20400;-62
2022/07/25 09:40:14;;;;;;;10.23;4.53;;;25.60;1.00;;;;;;5062445;28;20824;-63
2022/07/25 09:42:44;;;;;;;13.48;5.40;;;25.40;1.00;;;;;;5066078;28;20700;-63
2022/07/25 09:45:13;;;;;;;5.68;4.20;;;25.60;1.00;;;;;;5065023;28;20204;-62
2022/07/25 09:47:51;;;;;;;22.67;4.97;;;25.70;1.00;;;;;;5041424;28;20215;-63
2022/07/25 09:50:19;;;;;;;12.90;4.72;;;25.70;1.00;;;;;;5053939;28;20207;-62
2022/07/25 09:52:46;;;;;;;7.18;4.57;;;25.80;1.00;;;;;;5064611;28;20219;-62
2022/07/25 09:55:15;;;;;;;5.20;4.45;;;25.80;1.00;;;;;;5068242;28;20227;-62
2022/07/25 09:57:43;;;;;;;7.90;4.63;;;26.00;1.00;;;;;;5066378;28;20196;-63
2022/07/25 10:00:12;;;;;;;5.35;4.85;;;26.30;1.00;;;;;;5067135;28;20208;-62
2022/07/25 10:02:49;;;;;;;5.60;4.65;;;26.20;1.00;;;;;;5037921;28;21087;-62
2022/07/25 10:05:20;;;;;;;7.22;4.72;;;26.20;1.00;;;;;;5065920;28;20200;-62
2022/07/25 10:07:50;;;;;;;5.50;4.50;;;26.30;1.00;;;;;;5050426;28;20866;-63
2022/07/25 10:10:29;;;;;;;7.78;5.22;;;26.30;1.00;;;;;;5062814;28;20804;-63
2022/07/25 10:13:00;;;;;;;5.55;4.43;;;26.50;1.00;;;;;;5061711;28;20323;-62
2022/07/25 10:15:39;;;;;;;6.25;4.72;;;26.40;1.00;;;;;;5065292;28;20231;-62
2022/07/25 10:18:07;;;;;;;7.70;5.20;;;26.40;1.00;;;;;;5040944;28;20235;-62
2022/07/25 10:20:34;;;;;;;7.80;4.82;;;26.30;1.00;;;;;;5058651;28;20709;-62
2022/07/25 10:23:01;;;;;;;10.35;5.22;;;25.90;1.00;;;;;;5051271;28;20228;-62
2022/07/25 10:25:29;;;;;;;6.35;4.32;;;26.20;1.00;;;;;;5045053;28;20200;-62
2022/07/25 10:28:02;;;;;;;6.53;4.75;;;26.20;1.00;;;;;;5064596;28;20412;-62
2022/07/25 10:30:35;;;;;;;5.60;4.78;;;26.10;1.00;;;;;;5067986;28;20198;-61
2022/07/25 10:33:04;;;;;;;5.15;4.65;;;26.10;1.00;;;;;;5067969;28;20212;-62
2022/07/25 10:35:31;;;;;;;6.00;4.60;;;26.10;1.00;;;;;;5040279;28;20570;-62
2022/07/25 10:38:02;;;;;;;5.93;4.63;;;26.20;1.00;;;;;;5056677;28;20903;-63
2022/07/25 10:40:34;;;;;;;6.40;4.97;;;26.20;1.00;;;;;;5054715;28;20197;-62
2022/07/25 10:43:19;;;;;;;5.93;5.13;;;26.40;1.00;;;;;;5062249;28;20192;-62
2022/07/25 10:45:50;;;;;;;14.95;4.82;;;26.80;99.90;;;;;;5059899;28;20293;-62
2022/07/25 10:48:23;;;;;;;5.97;4.80;;;26.90;99.90;;;;;;5064491;28;20200;-62
2022/07/25 10:50:51;;;;;;;4.88;4.45;;;27.00;99.90;;;;;;5042983;28;20394;-62
2022/07/25 10:53:32;;;;;;;5.28;4.68;;;26.80;99.90;;;;;;5058333;28;20267;-63
2022/07/25 10:56:04;;;;;;;7.00;4.93;;;27.50;99.90;;;;;;5054523;28;20357;-62
2022/07/25 10:58:45;;;;;;;5.40;4.90;;;27.20;99.90;;;;;;5066457;28;20583;-63
2022/07/25 11:01:14;;;;;;;8.65;5.05;;;27.20;99.90;;;;;;5059959;28;20225;-63
2022/07/25 11:03:43;;;;;;;6.00;4.90;;;27.80;99.90;;;;;;5039660;28;21430;-65
2022/07/25 11:06:11;;;;;;;6.40;4.88;;;27.20;99.90;;;;;;5062575;28;20193;-62
2022/07/25 11:08:38;;;;;;;5.50;4.90;;;27.20;99.90;;;;;;5054706;28;20216;-62
2022/07/25 11:11:07;;;;;;;7.95;4.95;;;26.80;99.90;;;;;;5052448;28;20224;-62
2022/07/25 11:13:37;;;;;;;5.50;4.65;;;26.70;99.90;;;;;;5067206;28;20653;-62
2022/07/25 11:16:04;;;;;;;6.95;4.95;;;26.80;99.90;;;;;;5068569;28;20223;-62
2022/07/25 11:18:33;;;;;;;5.70;5.05;;;26.90;99.90;;;;;;5068164;28;20203;-63
2022/07/25 11:21:00;;;;;;;7.07;4.78;;;27.10;99.90;;;;;;5046038;28;20215;-62
2022/07/25 11:23:28;;;;;;;6.00;4.75;;;27.20;99.90;;;;;;5065750;28;20583;-62
2022/07/25 11:26:06;;;;;;;6.50;4.82;;;27.50;99.90;;;;;;5048453;28;20563;-62
2022/07/25 11:28:45;;;;;;;7.60;5.25;;;27.40;99.90;;;;;;5065794;28;20514;-62
2022/07/25 11:31:13;;;;;;;5.25;4.75;;;27.10;99.90;;;;;;5061439;28;20200;-62
2022/07/25 11:33:41;;;;;;;5.78;5.22;;;27.00;99.90;;;;;;5060414;28;20324;-63
2022/07/25 11:36:12;;;;;;;5.68;4.22;;;27.10;99.90;;;;;;5046051;28;20235;-61
2022/07/25 11:38:40;;;;;;;6.10;5.50;;;27.00;99.90;;;;;;5065860;28;20188;-63
2022/07/25 11:41:08;;;;;;;8.05;5.55;;;26.90;99.90;;;;;;5058816;28;20211;-63
2022/07/25 11:43:35;;;;;;;10.02;5.10;;;26.80;99.90;;;;;;5058297;28;20805;-63
2022/07/25 11:46:06;;;;;;;6.40;5.45;;;26.80;99.90;;;;;;5067678;28;20196;-62
2022/07/25 11:48:35;;;;;;;7.80;5.80;;;26.70;99.90;;;;;;5067510;28;20218;-63
2022/07/25 11:51:11;;;;;;;6.00;5.20;;;26.80;99.90;;;;;;5063762;28;20311;-63
2022/07/25 11:53:43;;;;;;;6.20;5.13;;;26.80;99.90;;;;;;5044696;28;20239;-63
2022/07/25 11:56:19;;;;;;;6.63;5.30;;;26.80;99.90;;;;;;5054929;28;20224;-63
2022/07/25 11:59:00;;;;;;;9.45;5.68;;;26.30;99.90;;;;;;5056842;28;20204;-63
2022/07/25 12:01:35;;;;;;;7.38;6.22;;;26.80;99.90;;;;;;5055612;28;20607;-63
2022/07/25 12:04:13;;;;;;;6.30;5.57;;;26.90;99.90;;;;;;5063577;28;20231;-63
2022/07/25 12:06:40;;;;;;;7.45;5.80;;;27.00;99.90;;;;;;5057420;28;20200;-63
2022/07/25 12:09:15;;;;;;;9.10;5.88;;;27.10;1.00;;;;;;5036315;28;20637;-63
2022/07/25 12:11:43;;;;;;;6.97;6.15;;;27.30;1.00;;;;;;5050733;28;20334;-63
2022/07/25 12:14:10;;;;;;;8.35;5.78;;;27.60;1.00;;;;;;5046940;28;20204;-62
2022/07/25 12:16:39;;;;;;;8.63;6.10;;;27.50;1.00;;;;;;5063360;28;20825;-63
2022/07/25 12:19:09;;;;;;;9.68;6.53;;;27.40;1.00;;;;;;5063672;28;20196;-62
2022/07/25 12:21:39;;;;;;;9.23;5.80;;;27.50;1.00;;;;;;5049812;28;20216;-63
2022/07/25 12:24:06;;;;;;;8.50;6.30;;;27.50;1.00;;;;;;5045354;28;20214;-62
2022/07/25 12:26:33;;;;;;;7.68;6.32;;;27.60;1.00;;;;;;5058317;28;20203;-62
2022/07/25 12:29:01;;;;;;;8.50;7.60;;;27.70;1.00;;;;;;5049518;28;20900;-63
2022/07/25 12:31:28;;;;;;;9.93;7.47;;;27.60;1.00;;;;;;5059946;28;20215;-63
2022/07/25 12:33:55;;;;;;;10.68;8.23;;;27.50;1.00;;;;;;5060473;28;20196;-64
2022/07/25 12:36:22;;;;;;;13.73;7.82;;;27.40;1.00;;;;;;5060950;28;20262;-63
2022/07/25 12:38:49;;;;;;;10.68;7.93;;;27.30;1.00;;;;;;5055058;28;20318;-63
2022/07/25 12:41:16;;;;;;;12.43;8.73;;;27.40;1.00;;;;;;5038397;28;20200;-62
2022/07/25 12:43:42;;;;;;;11.05;8.90;;;27.30;1.00;;;;;;5056026;28;20211;-62
2022/07/25 12:46:11;;;;;;;11.50;8.50;;;27.20;1.00;;;;;;5061725;28;20212;-63
2022/07/25 12:48:38;;;;;;;11.77;8.85;;;27.10;1.00;;;;;;5067395;28;20823;-62
2022/07/25 12:51:05;;;;;;;12.48;8.30;;;27.00;1.00;;;;;;5065317;28;20729;-62
2022/07/25 12:53:32;;;;;;;9.95;8.93;;;27.00;1.00;;;;;;5052658;28;20203;-62
2022/07/25 12:55:58;;;;;;;12.13;7.57;;;27.00;1.00;;;;;;5041002;28;20836;-62
2022/07/25 12:58:25;;;;;;;11.55;7.47;;;26.70;1.00;;;;;;5053431;28;20817;-62
2022/07/25 13:00:52;;;;;;;16.48;7.38;;;26.70;1.00;;;;;;5064006;28;20203;-62